createdAt,value
2023-04-12T00:02:14.298Z,44.17
2023-04-12T00:06:17.332Z,57.40
2023-04-12T00:10:21.314Z,44.92
2023-04-12T00:14:23.879Z,45.72
2023-04-12T00:18:27.317Z,53.33
2023-04-12T00:22:29.948Z,62.47
2023-04-12T00:26:31.939Z,61.83
2023-04-12T00:30:34.376Z,61.08
2023-04-12T00:34:36.434Z,62.85
2023-04-12T00:38:38.434Z,66.13
2023-04-12T00:42:40.470Z,57.30
2023-04-12T00:46:42.625Z,57.53
2023-04-12T00:50:45.056Z,51.72
2023-04-12T00:54:47.308Z,53.42
2023-04-12T00:58:49.629Z,57.10
2023-04-12T01:02:53.141Z,64.70
2023-04-12T01:07:24.561Z,57.60
2023-04-12T01:11:33.360Z,49.60
2023-04-12T01:15:44.495Z,51.92
2023-04-12T01:20:14.357Z,61.67
2023-04-12T01:24:37.781Z,57.03
2023-04-12T01:28:43.634Z,54.22
2023-04-12T01:32:57.719Z,63.58
2023-04-12T01:37:02.451Z,58.80
2023-04-12T01:41:05.726Z,56.97
2023-04-12T01:45:08.322Z,65.65
2023-04-12T01:49:12.942Z,62.03
2023-04-12T01:53:25.548Z,61.47
2023-04-12T01:57:28.120Z,59.25
2023-04-12T02:01:31.074Z,56.40
2023-04-12T02:05:34.111Z,56.10
2023-04-12T02:09:38.052Z,53.53
2023-04-12T02:13:40.470Z,56.40
2023-04-12T02:17:42.466Z,56.90
2023-04-12T02:21:45.735Z,54.22
2023-04-12T02:25:48.428Z,55.95
2023-04-12T02:29:51.950Z,49.95
2023-04-12T02:33:54.245Z,54.80
2023-04-12T02:37:56.487Z,59.47
2023-04-12T02:42:02.623Z,56.70
2023-04-12T02:46:05.395Z,60.55
2023-04-12T02:50:14.735Z,66.43
2023-04-12T02:54:27.035Z,68.03
2023-04-12T02:58:33.696Z,67.70
2023-04-12T03:02:36.226Z,65.43
2023-04-12T03:06:52.360Z,74.35
2023-04-12T03:10:58.082Z,65.53
2023-04-12T03:15:01.816Z,66.35
2023-04-12T03:19:06.812Z,61.00
2023-04-12T03:23:09.349Z,63.47
2023-04-12T03:27:15.342Z,58.47
2023-04-12T03:31:21.099Z,62.55
2023-04-12T03:35:23.473Z,60.40
2023-04-12T03:39:27.125Z,60.05
2023-04-12T03:43:35.778Z,51.75
2023-04-12T03:47:40.735Z,58.35
2023-04-12T03:51:43.891Z,57.55
2023-04-12T03:55:46.188Z,63.47
2023-04-12T03:59:48.173Z,57.40
2023-04-12T04:03:54.252Z,55.83
2023-04-12T04:08:02.319Z,59.40
2023-04-12T04:12:09.894Z,55.80
2023-04-12T04:16:15.358Z,59.42
2023-04-12T04:20:18.827Z,57.20
2023-04-12T04:24:25.254Z,67.53
2023-04-12T04:28:30.578Z,66.78
2023-04-12T04:32:34.065Z,63.28
2023-04-12T04:36:38.188Z,65.65
2023-04-12T04:40:41.296Z,75.20
2023-04-12T04:44:45.095Z,84.57
2023-04-12T04:48:49.158Z,85.75
2023-04-12T04:52:51.265Z,86.05
2023-04-12T04:56:53.998Z,79.57
2023-04-12T05:00:57.662Z,78.63
2023-04-12T05:05:02.428Z,78.20
2023-04-12T05:09:08.089Z,73.95
2023-04-12T05:13:15.369Z,69.80
2023-04-12T05:17:17.365Z,76.20
2023-04-12T05:21:19.880Z,83.43
2023-04-12T05:25:22.563Z,82.53
2023-04-12T05:29:34.414Z,80.40
2023-04-12T05:33:37.448Z,68.68
2023-04-12T05:37:39.556Z,72.57
2023-04-12T05:41:41.596Z,89.13
2023-04-12T05:45:43.764Z,86.13
2023-04-12T05:49:46.052Z,82.50
2023-04-12T05:53:48.080Z,70.95
2023-04-12T05:57:51.493Z,61.50
2023-04-12T06:01:56.176Z,63.95
2023-04-12T06:05:59.303Z,68.88
2023-04-12T06:10:01.462Z,64.35
2023-04-12T06:14:03.545Z,66.72
2023-04-12T06:18:07.578Z,64.55
2023-04-12T06:22:09.734Z,70.82
2023-04-12T06:26:13.456Z,66.60
2023-04-12T06:30:15.877Z,60.50
2023-04-12T06:34:18.108Z,60.83
2023-04-12T06:38:20.846Z,59.50
2023-04-12T06:42:22.941Z,51.47
2023-04-12T06:46:28.901Z,59.92
2023-04-12T06:50:30.974Z,51.08
2023-04-12T06:54:36.309Z,55.65
2023-04-12T06:58:38.451Z,61.35
2023-04-12T07:02:40.799Z,59.55
2023-04-12T07:06:42.955Z,60.17
2023-04-12T07:10:44.996Z,55.83
2023-04-12T07:14:46.986Z,61.65
2023-04-12T07:18:49.103Z,61.83
2023-04-12T07:22:51.467Z,57.65
2023-04-12T07:26:54.896Z,60.92
2023-04-12T07:30:57.074Z,62.97
2023-04-12T07:34:59.293Z,60.03
2023-04-12T07:39:01.349Z,56.15
2023-04-12T07:43:03.399Z,56.75
2023-04-12T07:47:05.591Z,56.83
2023-04-12T07:51:07.572Z,59.88
2023-04-12T07:55:10.177Z,52.92
2023-04-12T07:59:12.492Z,58.00
2023-04-12T08:03:17.027Z,53.03
2023-04-12T08:07:19.950Z,57.17
2023-04-12T08:11:22.230Z,62.47
2023-04-12T08:15:24.548Z,55.63
2023-04-12T08:19:27.531Z,54.60
2023-04-12T08:23:29.998Z,45.88
2023-04-12T08:27:31.578Z,53.10
2023-04-12T08:31:34.289Z,61.65
2023-04-12T08:35:36.405Z,61.65
2023-04-12T08:39:38.366Z,56.65
2023-04-12T08:43:44.445Z,59.58
2023-04-12T08:47:46.808Z,57.22
2023-04-12T08:51:49.413Z,49.35
2023-04-12T08:55:51.968Z,46.58
2023-04-12T08:59:54.934Z,52.10
2023-04-12T09:03:57.539Z,53.50
2023-04-12T09:08:00.160Z,48.45
2023-04-12T09:12:10.518Z,52.28
2023-04-12T09:16:12.698Z,47.40
2023-04-12T09:20:18.095Z,47.78
2023-04-12T09:24:24.059Z,49.15
2023-04-12T09:28:28.020Z,46.83
2023-04-12T09:32:30.241Z,45.83
2023-04-12T09:36:38.590Z,46.33
2023-04-12T09:40:40.673Z,43.20
2023-04-12T09:44:42.837Z,44.38
2023-04-12T09:48:52.895Z,50.05
2023-04-12T09:52:57.342Z,39.22
2023-04-12T09:57:01.080Z,45.58
2023-04-12T10:01:04.872Z,58.22
2023-04-12T10:05:07.505Z,50.78
2023-04-12T10:09:10.271Z,42.47
2023-04-12T10:13:13.834Z,42.92
2023-04-12T10:17:19.065Z,46.15
2023-04-12T10:21:22.802Z,42.15
2023-04-12T10:25:27.231Z,49.55
2023-04-12T10:29:30.297Z,45.53
2023-04-12T10:33:32.603Z,50.25
2023-04-12T10:38:06.075Z,54.35
2023-04-12T10:42:17.206Z,42.75
2023-04-12T10:46:39.083Z,44.17
2023-04-12T10:50:42.171Z,50.03
2023-04-12T10:54:44.660Z,41.35
2023-04-12T10:58:48.925Z,41.85
2023-04-12T11:03:07.849Z,42.80
2023-04-12T11:07:11.959Z,39.00
2023-04-12T11:11:20.362Z,50.20
2023-04-12T11:15:27.058Z,47.72
2023-04-12T11:19:57.865Z,48.38
2023-04-12T11:24:00.356Z,39.72
2023-04-12T11:28:04.140Z,39.95
2023-04-12T11:32:14.189Z,41.53
2023-04-12T11:36:17.694Z,38.13
2023-04-12T11:40:22.672Z,44.08
2023-04-12T11:44:25.289Z,40.55
2023-04-12T11:48:28.651Z,42.70
2023-04-12T11:52:32.759Z,34.35
2023-04-12T11:56:34.820Z,34.15
2023-04-12T12:00:37.542Z,33.83
2023-04-12T12:04:48.928Z,35.15
2023-04-12T12:08:52.319Z,31.92
2023-04-12T12:12:58.036Z,37.60
2023-04-12T12:17:00.604Z,42.58
2023-04-12T12:21:02.894Z,32.35
2023-04-12T12:25:06.095Z,31.33
2023-04-12T12:29:16.596Z,29.63
2023-04-12T12:33:26.832Z,30.02
2023-04-12T12:37:37.623Z,26.45
2023-04-12T12:41:41.061Z,26.98
2023-04-12T12:45:43.654Z,24.48
2023-04-12T12:49:45.993Z,24.13
2023-04-12T12:53:48.598Z,24.13
2023-04-12T12:58:07.553Z,24.17
2023-04-12T13:02:10.693Z,28.90
2023-04-12T13:06:13.093Z,26.05
2023-04-12T13:10:15.308Z,24.33
2023-04-12T13:14:17.228Z,22.02
2023-04-12T13:18:20.131Z,19.85
2023-04-12T13:22:22.611Z,20.42
2023-04-12T13:26:25.781Z,24.88
2023-04-12T13:30:28.283Z,22.23
2023-04-12T13:34:31.526Z,21.52
2023-04-12T13:38:33.613Z,22.20
2023-04-12T13:42:35.892Z,20.55
2023-04-12T13:46:38.008Z,21.90
2023-04-12T13:50:40.167Z,22.50
2023-04-12T13:54:43.438Z,18.27
2023-04-12T13:58:45.774Z,22.98
2023-04-12T14:02:48.077Z,29.30
2023-04-12T14:06:50.119Z,21.23
2023-04-12T14:10:52.572Z,23.33
2023-04-12T14:14:54.806Z,21.73
2023-04-12T14:18:57.149Z,18.80
2023-04-12T14:22:59.428Z,17.02
2023-04-12T14:27:02.464Z,21.88
2023-04-12T14:31:06.566Z,18.42
2023-04-12T14:35:09.752Z,19.38
2023-04-12T14:39:13.903Z,30.92
2023-04-12T14:43:17.071Z,17.38
2023-04-12T14:47:19.340Z,19.92
2023-04-12T14:51:21.842Z,18.38
2023-04-12T14:55:24.200Z,28.38
2023-04-12T14:59:27.508Z,24.88
2023-04-12T15:03:31.577Z,24.92
2023-04-12T15:07:35.093Z,25.15
2023-04-12T15:11:38.214Z,22.67
2023-04-12T15:15:41.794Z,22.90
2023-04-12T15:19:44.146Z,19.38
2023-04-12T15:23:47.452Z,22.60
2023-04-12T15:27:49.586Z,28.13
2023-04-12T15:31:51.801Z,22.70
2023-04-12T15:35:56.603Z,19.75
2023-04-12T15:39:58.726Z,22.15
2023-04-12T15:44:01.267Z,23.52
2023-04-12T15:48:03.676Z,23.92
2023-04-12T15:52:05.928Z,18.48
2023-04-12T15:56:09.254Z,17.50
2023-04-12T16:00:30.789Z,19.65
2023-04-12T16:04:33.578Z,24.45
2023-04-12T16:08:36.164Z,24.05
2023-04-12T16:12:38.386Z,57.22
2023-04-12T16:16:40.688Z,34.92
2023-04-12T16:20:43.032Z,29.48
2023-04-12T16:24:45.205Z,89.82
2023-04-12T16:28:51.816Z,78.88
2023-04-12T16:32:54.730Z,53.30
2023-04-12T16:36:57.609Z,65.85
2023-04-12T16:41:00.148Z,44.88
2023-04-12T16:45:04.526Z,33.85
2023-04-12T16:49:06.771Z,22.45
2023-04-12T16:53:09.044Z,22.75
2023-04-12T16:57:11.803Z,28.70
2023-04-12T17:01:17.256Z,23.30
2023-04-12T17:05:21.900Z,27.95
2023-04-12T17:09:24.084Z,27.30
2023-04-12T17:13:26.762Z,28.67
2023-04-12T17:17:28.886Z,26.42
2023-04-12T17:21:40.849Z,35.78
2023-04-12T17:25:43.370Z,37.10
2023-04-12T17:29:45.525Z,43.53
2023-04-12T17:33:48.087Z,34.25
2023-04-12T17:37:51.365Z,57.13
2023-04-12T17:41:53.697Z,57.28
2023-04-12T17:45:56.020Z,51.63
2023-04-12T17:49:58.173Z,53.33
2023-04-12T17:54:00.841Z,33.20
2023-04-12T17:58:03.480Z,34.70
2023-04-12T18:02:06.087Z,35.00
2023-04-12T18:06:08.647Z,43.33
2023-04-12T18:10:15.397Z,42.92
2023-04-12T18:14:17.800Z,30.13
2023-04-12T18:18:20.320Z,37.40
2023-04-12T18:22:22.820Z,34.45
2023-04-12T18:26:25.138Z,38.00
2023-04-12T18:30:27.645Z,36.58
2023-04-12T18:34:31.065Z,41.13
2023-04-12T18:38:35.703Z,39.28
2023-04-12T18:42:38.040Z,33.72
2023-04-12T18:46:41.053Z,36.83
2023-04-12T18:50:44.633Z,33.83
2023-04-12T18:54:48.193Z,33.00
2023-04-12T18:58:55.695Z,34.20
2023-04-12T19:02:58.469Z,35.13
2023-04-12T19:07:00.511Z,39.78
2023-04-12T19:11:02.779Z,55.70
2023-04-12T19:15:07.147Z,35.10
2023-04-12T19:19:09.536Z,44.90
2023-04-12T19:23:11.706Z,42.28
2023-04-12T19:27:14.330Z,44.80
2023-04-12T19:31:16.498Z,37.72
2023-04-12T19:35:19.077Z,62.30
2023-04-12T19:39:22.779Z,49.72
2023-04-12T19:43:25.841Z,41.72
2023-04-12T19:47:27.976Z,41.30
2023-04-12T19:51:31.386Z,50.35
2023-04-12T19:55:33.509Z,61.63
2023-04-12T19:59:36.754Z,53.47
2023-04-12T20:03:40.558Z,54.60
2023-04-12T20:07:45.895Z,60.55
2023-04-12T20:11:48.246Z,104.97
2023-04-12T20:15:51.093Z,51.25
2023-04-12T20:19:55.331Z,63.15
2023-04-12T20:23:59.168Z,62.83
2023-04-12T20:28:02.745Z,65.05
2023-04-12T20:32:05.015Z,75.63
2023-04-12T20:36:07.416Z,69.25
2023-04-12T20:40:10.068Z,58.83
2023-04-12T20:44:12.335Z,60.47
2023-04-12T20:48:14.428Z,70.78
2023-04-12T20:52:18.492Z,81.97
2023-04-12T20:56:20.488Z,61.45
2023-04-12T21:00:23.539Z,54.75
2023-04-12T21:04:27.845Z,133.95
2023-04-12T21:08:33.741Z,160.30
2023-04-12T21:12:35.742Z,87.03
2023-04-12T21:16:38.703Z,67.57
2023-04-12T21:20:41.032Z,64.85
2023-04-12T21:24:43.308Z,55.63
2023-04-12T21:28:46.097Z,56.25
2023-04-12T21:32:48.248Z,64.53
2023-04-12T21:36:50.850Z,52.83
2023-04-12T21:40:57.195Z,62.78
2023-04-12T21:44:59.152Z,55.20
2023-04-12T21:49:01.204Z,57.65
2023-04-12T21:53:03.395Z,53.25
2023-04-12T21:57:06.153Z,51.05
2023-04-12T22:01:09.426Z,46.00
2023-04-12T22:05:11.794Z,50.53
2023-04-12T22:09:13.570Z,46.22
2023-04-12T22:13:16.020Z,50.45
2023-04-12T22:17:19.320Z,53.08
2023-04-12T22:21:22.833Z,48.38
2023-04-12T22:25:24.924Z,46.70
2023-04-12T22:29:26.940Z,47.28
2023-04-12T22:33:29.938Z,51.88
2023-04-12T22:37:33.485Z,72.32
2023-04-12T22:41:35.531Z,60.92
2023-04-12T22:45:39.401Z,59.10
2023-04-12T22:49:46.311Z,60.90
2023-04-12T22:53:50.279Z,59.75
2023-04-12T22:57:53.123Z,53.08
2023-04-12T23:01:55.182Z,77.53
2023-04-12T23:05:57.344Z,59.45
2023-04-12T23:09:59.409Z,62.45
2023-04-12T23:14:02.501Z,62.20
2023-04-12T23:18:04.618Z,66.05
2023-04-12T23:22:06.671Z,73.68
2023-04-12T23:26:10.785Z,67.50
2023-04-12T23:30:14.597Z,64.82
2023-04-12T23:34:18.840Z,65.32
2023-04-12T23:38:25.954Z,62.90
2023-04-12T23:42:28.573Z,75.03
2023-04-12T23:46:30.790Z,74.95
2023-04-12T23:50:32.848Z,74.07
2023-04-12T23:54:34.539Z,92.10
2023-04-12T23:58:37.917Z,88.63
